Time;durP1;ratioP1;P1;durP2;ratioP2;P2;SDS_P1;SDS_P2;PMS_P1;PMS_P2;Temp;Humidity;BMP_temperature;BMP_pressure;BME280_temperature;BME280_humidity;BME280_pressure;Samples;Min_cycle;Max_cycle;Signal;HPM_P1;HPM_P2
2021/01/03 00:01:22;;;;;;;23.20;12.50;;;;;;;4.83;47.54;101021.72;5028898;28;20121;-71
2021/01/03 00:03:49;;;;;;;23.65;12.88;;;;;;;4.81;47.48;101019.09;5030639;28;20052;-70
2021/01/03 00:06:17;;;;;;;23.05;12.50;;;;;;;4.79;47.61;101015.59;5030962;28;20045;-70
2021/01/03 00:08:44;;;;;;;22.13;12.70;;;;;;;4.77;47.55;101011.25;5023138;28;20100;-70
2021/01/03 00:11:11;;;;;;;23.65;12.82;;;;;;;4.75;47.82;101013.19;5024564;28;20041;-71
2021/01/03 00:13:39;;;;;;;21.30;11.25;;;;;;;4.75;47.63;101007.75;5032169;28;20125;-70
2021/01/03 00:16:07;;;;;;;21.35;12.20;;;;;;;4.74;47.95;101011.44;5029021;28;20393;-69
2021/01/03 00:18:34;;;;;;;22.30;12.60;;;;;;;4.72;47.88;101003.38;5029888;28;20132;-70
2021/01/03 00:21:02;;;;;;;21.05;11.82;;;;;;;4.72;47.92;101000.69;5028131;28;20040;-70
2021/01/03 00:23:29;;;;;;;18.83;11.07;;;;;;;4.71;48.12;100998.06;5029849;28;20393;-70
2021/01/03 00:25:56;;;;;;;20.55;10.32;;;;;;;4.72;48.08;100997.97;5024247;28;20037;-69
2021/01/03 00:28:49;;;;;;;17.60;9.63;;;;;;;4.70;47.95;100999.88;5029138;28;20038;-69
2021/01/03 00:31:23;;;;;;;24.52;12.10;;;;;;;4.72;48.13;100997.97;5030406;28;20076;-70
2021/01/03 00:33:51;;;;;;;22.38;12.18;;;;;;;4.72;48.23;101000.69;5028269;28;20137;-69
2021/01/03 00:36:19;;;;;;;20.63;10.68;;;;;;;4.74;48.05;101004.19;5030438;28;20095;-70
2021/01/03 00:38:46;;;;;;;21.48;9.95;;;;;;;4.77;47.98;101005.84;5028049;28;20380;-70
2021/01/03 00:41:15;;;;;;;19.10;10.45;;;;;;;4.77;48.18;100995.84;5028978;28;20120;-71
2021/01/03 00:43:42;;;;;;;23.00;11.75;;;;;;;4.79;48.26;101002.06;5029244;28;20091;-71
2021/01/03 00:46:09;;;;;;;19.27;10.35;;;;;;;4.81;48.27;100993.84;5045467;28;20041;-70
2021/01/03 00:48:38;;;;;;;19.35;10.18;;;;;;;4.83;48.17;100991.91;5046053;28;20518;-69
2021/01/03 00:51:05;;;;;;;20.80;10.55;;;;;;;4.83;48.33;100992.78;5030023;28;20041;-70
2021/01/03 00:53:33;;;;;;;22.77;12.40;;;;;;;4.85;47.97;100981.84;5029494;28;20053;-69
2021/01/03 00:56:00;;;;;;;23.13;11.65;;;;;;;4.87;48.23;100982.63;5029301;28;20515;-71
2021/01/03 00:58:28;;;;;;;20.50;10.55;;;;;;;4.88;48.17;100989.78;5031709;28;20103;-70
2021/01/03 01:00:55;;;;;;;20.73;11.38;;;;;;;4.90;48.28;100982.44;5031579;28;20045;-70
2021/01/03 01:03:49;;;;;;;19.88;10.88;;;;;;;4.90;48.32;100998.69;5027557;28;20097;-70
2021/01/03 01:06:16;;;;;;;23.58;11.68;;;;;;;4.91;48.05;100978.78;5026632;28;20125;-70
2021/01/03 01:08:44;;;;;;;25.20;13.55;;;;;;;4.93;47.95;100989.53;5031753;28;20045;-71
2021/01/03 01:11:12;;;;;;;28.65;13.80;;;;;;;4.94;48.06;100991.25;5031450;28;20473;-69
2021/01/03 01:13:39;;;;;;;24.33;13.75;;;;;;;4.93;47.95;100990.41;5033524;28;20481;-70
2021/01/03 01:16:08;;;;;;;25.58;13.90;;;;;;;4.94;47.93;100999.38;5032495;28;20046;-70
2021/01/03 01:18:35;;;;;;;22.83;11.98;;;;;;;4.93;47.75;101001.25;5032911;28;20033;-69
2021/01/03 01:21:06;;;;;;;25.17;13.38;;;;;;;4.93;47.77;100992.22;5033091;28;20045;-71
2021/01/03 01:23:34;;;;;;;23.83;12.98;;;;;;;4.91;48.11;100999.56;5033904;28;20045;-70
2021/01/03 01:26:01;;;;;;;23.30;13.02;;;;;;;4.91;48.03;101005.00;5032011;28;20044;-71
2021/01/03 01:28:29;;;;;;;26.90;14.18;;;;;;;4.88;48.10;101000.63;5027835;28;20041;-70
2021/01/03 01:30:57;;;;;;;23.67;13.93;;;;;;;4.88;47.82;100999.75;5031286;28;20440;-69
2021/01/03 01:33:24;;;;;;;26.70;14.45;;;;;;;4.85;47.79;101003.53;5034755;28;20041;-70
2021/01/03 01:35:52;;;;;;;23.25;11.93;;;;;;;4.85;48.34;101007.09;5031969;28;20084;-71
2021/01/03 01:38:22;;;;;;;25.00;13.38;;;;;;;4.83;48.02;101006.34;5033091;28;20053;-71
2021/01/03 01:40:50;;;;;;;29.02;15.13;;;;;;;4.78;47.99;101000.31;5028576;28;20041;-70
2021/01/03 01:43:19;;;;;;;26.40;14.35;;;;;;;4.80;47.98;101001.09;5032154;28;20057;-70
2021/01/03 01:45:47;;;;;;;26.10;14.05;;;;;;;4.78;48.11;101002.13;5031028;28;20064;-70
2021/01/03 01:48:18;;;;;;;29.75;15.50;;;;;;;4.78;48.14;101007.56;5032808;28;20069;-70
2021/01/03 01:50:50;;;;;;;22.77;12.93;;;;;;;4.74;48.22;101006.00;5029974;28;20103;-71
2021/01/03 01:53:26;;;;;;;27.70;13.85;;;;;;;4.73;48.09;101002.44;5026665;28;20053;-69
2021/01/03 01:56:01;;;;;;;27.33;14.52;;;;;;;4.73;47.94;101005.13;5032132;28;20038;-71
2021/01/03 01:58:43;;;;;;;27.50;14.05;;;;;;;4.72;48.22;101011.50;5027026;28;20045;-71
2021/01/03 02:01:16;;;;;;;27.48;14.88;;;;;;;4.67;48.12;101005.50;5031530;28;20041;-69
2021/01/03 02:03:49;;;;;;;26.20;14.23;;;;;;;4.66;48.26;101011.88;5031654;28;20045;-70
2021/01/03 02:06:21;;;;;;;27.85;14.02;;;;;;;4.66;48.34;101006.47;5032422;28;20463;-70
2021/01/03 02:08:52;;;;;;;;;;;;;;;4.41;48.90;101003.47;5014082;28;20148;-70
2021/01/03 02:11:23;;;;;;;22.42;11.25;;;;;;;4.60;48.45;101009.56;5031295;28;19921;-71
2021/01/03 02:13:54;;;;;;;24.63;13.18;;;;;;;4.63;48.21;101006.63;5029093;28;20408;-70
2021/01/03 02:16:24;;;;;;;24.50;11.90;;;;;;;4.63;48.32;101003.94;5031562;28;20147;-71
2021/01/03 02:18:53;;;;;;;23.08;11.50;;;;;;;4.63;48.25;100995.81;5030877;28;20050;-70
2021/01/03 02:21:26;;;;;;;24.58;13.00;;;;;;;4.66;48.31;100997.47;5029899;28;20038;-70
2021/01/03 02:24:00;;;;;;;23.95;11.52;;;;;;;4.64;48.36;101005.69;5031636;28;20103;-72
2021/01/03 02:26:34;;;;;;;24.50;12.80;;;;;;;4.67;48.40;100999.22;5031314;28;20684;-70
2021/01/03 02:29:03;;;;;;;26.08;13.20;;;;;;;4.66;48.26;100997.47;5025653;28;20041;-70
2021/01/03 02:31:34;;;;;;;26.67;13.98;;;;;;;4.67;48.22;101000.09;5031556;28;20045;-70
2021/01/03 02:34:05;;;;;;;24.42;12.68;;;;;;;4.66;48.46;100995.63;5046932;28;20053;-71
2021/01/03 02:36:37;;;;;;;26.48;12.98;;;;;;;4.67;48.47;100994.66;5032072;28;20417;-70
2021/01/03 02:39:13;;;;;;;23.48;12.73;;;;;;;4.69;48.22;100992.72;5030234;28;20501;-70
2021/01/03 02:41:42;;;;;;;23.88;11.52;;;;;;;4.68;48.29;100988.28;5030761;28;20047;-71
2021/01/03 02:44:09;;;;;;;24.25;12.10;;;;;;;4.70;48.12;100990.88;5030776;28;20048;-69
2021/01/03 02:46:38;;;;;;;22.60;11.45;;;;;;;4.71;48.10;100990.78;5027341;28;20087;-69
2021/01/03 02:49:06;;;;;;;22.85;11.38;;;;;;;4.72;48.23;100989.84;5029892;28;20049;-68
2021/01/03 02:51:37;;;;;;;20.85;10.77;;;;;;;4.74;48.14;100990.63;5030826;28;20448;-70
2021/01/03 02:54:05;;;;;;;23.67;12.65;;;;;;;4.75;48.19;100991.50;5031083;28;20053;-70
2021/01/03 02:56:33;;;;;;;19.95;10.80;;;;;;;4.76;48.34;100987.84;5031462;28;20071;-70
2021/01/03 02:59:02;;;;;;;22.85;11.82;;;;;;;4.78;48.14;100984.03;5040409;28;20119;-70
2021/01/03 03:01:30;;;;;;;22.90;12.55;;;;;;;4.78;48.03;100983.16;5030088;28;20088;-70
2021/01/03 03:03:57;;;;;;;24.60;12.63;;;;;;;4.78;48.11;100988.59;5030869;28;20042;-70
2021/01/03 03:06:25;;;;;;;25.60;12.88;;;;;;;4.78;48.10;100992.16;5031718;28;20467;-70
2021/01/03 03:08:52;;;;;;;20.98;11.15;;;;;;;4.78;48.20;100994.88;5024357;28;20127;-70
2021/01/03 03:11:19;;;;;;;24.27;12.93;;;;;;;4.77;48.33;100995.84;5024723;28;20397;-70
2021/01/03 03:13:47;;;;;;;18.50;10.55;;;;;;;4.78;48.03;100992.16;5031176;28;20473;-70
2021/01/03 03:16:17;;;;;;;22.65;11.60;;;;;;;4.78;48.11;100981.34;5026490;28;20041;-71
2021/01/03 03:18:44;;;;;;;19.75;11.25;;;;;;;4.77;48.03;100981.44;5026359;28;20030;-70
2021/01/03 03:21:12;;;;;;;23.83;12.73;;;;;;;4.77;48.12;100982.28;5021905;28;20120;-70
2021/01/03 03:23:39;;;;;;;23.20;11.93;;;;;;;4.79;48.14;100979.50;5031075;28;20121;-70
2021/01/03 03:26:06;;;;;;;21.75;12.52;;;;;;;4.78;48.00;100973.19;5030931;28;21357;-70
2021/01/03 03:28:33;;;;;;;21.80;11.73;;;;;;;4.78;48.03;100978.63;5030001;28;20044;-70
2021/01/03 03:31:01;;;;;;;20.85;10.40;;;;;;;4.79;47.97;100974.06;5030203;28;20099;-70
2021/01/03 03:33:29;;;;;;;20.23;11.60;;;;;;;4.80;47.86;100976.69;5026733;28;20047;-70
2021/01/03 03:35:56;;;;;;;21.55;11.18;;;;;;;4.79;48.05;100964.09;5028248;28;20033;-70
2021/01/03 03:38:24;;;;;;;25.05;12.60;;;;;;;4.80;47.88;100964.97;5030370;28;20041;-70
2021/01/03 03:40:51;;;;;;;24.02;12.25;;;;;;;4.81;48.03;100966.72;5028705;28;20493;-70
2021/01/03 03:43:18;;;;;;;21.02;10.38;;;;;;;4.82;48.23;100968.47;5031115;28;20045;-70
2021/01/03 03:45:46;;;;;;;19.75;10.85;;;;;;;4.82;47.88;100969.34;5030291;28;20440;-70
2021/01/03 03:48:13;;;;;;;22.08;11.38;;;;;;;4.83;47.87;100962.09;5029336;28;20485;-70
2021/01/03 03:50:42;;;;;;;22.95;11.45;;;;;;;4.84;47.83;100969.28;5030196;28;20045;-69
2021/01/03 03:53:10;;;;;;;19.42;10.32;;;;;;;4.83;48.00;100964.81;5027346;28;20045;-70
2021/01/03 03:55:37;;;;;;;24.83;12.20;;;;;;;4.82;47.99;100958.50;5027561;28;20037;-70
2021/01/03 03:58:05;;;;;;;20.05;10.95;;;;;;;4.83;48.07;100957.56;5029780;28;20038;-70
2021/01/03 04:00:33;;;;;;;19.25;10.25;;;;;;;4.83;47.96;100957.56;5028582;28;20033;-70
2021/01/03 04:03:01;;;;;;;23.35;11.40;;;;;;;4.84;47.73;100956.59;5027396;28;20128;-70
2021/01/03 04:05:28;;;;;;;21.38;10.82;;;;;;;4.83;47.92;100951.25;5026445;28;20476;-70
2021/01/03 04:07:56;;;;;;;23.95;12.40;;;;;;;4.83;47.77;100965.69;5030537;28;20050;-70
2021/01/03 04:10:24;;;;;;;18.48;10.45;;;;;;;4.82;47.86;100961.22;5029570;28;20112;-70
2021/01/03 04:13:12;;;;;;;18.80;9.77;;;;;;;4.81;47.71;100956.75;5028244;28;20045;-70
2021/01/03 04:15:51;;;;;;;19.95;10.05;;;;;;;4.82;47.89;100960.34;5018677;28;20025;-70
2021/01/03 04:18:28;;;;;;;19.00;10.10;;;;;;;4.80;47.95;100957.72;5041750;28;20132;-70
2021/01/03 04:20:55;;;;;;;19.33;10.88;;;;;;;4.81;47.93;100958.59;5027947;28;20587;-70
2021/01/03 04:23:23;;;;;;;22.17;11.18;;;;;;;4.83;47.55;100959.38;5027056;28;20136;-70
2021/01/03 04:26:00;;;;;;;20.20;10.68;;;;;;;4.81;47.89;100958.59;5030022;28;20066;-70
2021/01/03 04:28:28;;;;;;;23.42;11.75;;;;;;;4.80;47.60;100955.03;5037092;28;20044;-70
2021/01/03 04:30:55;;;;;;;19.70;10.80;;;;;;;4.81;47.52;100958.59;5030511;28;20048;-70
2021/01/03 04:33:23;;;;;;;17.95;9.95;;;;;;;4.81;47.76;100964.03;5031554;28;20041;-70
2021/01/03 04:35:51;;;;;;;19.60;9.95;;;;;;;4.80;47.38;100963.16;5034108;28;20045;-70
2021/01/03 04:38:18;;;;;;;16.15;9.25;;;;;;;4.81;47.58;100964.91;5030505;28;20045;-71
2021/01/03 04:40:47;;;;;;;20.42;10.05;;;;;;;4.82;47.53;100963.06;5033034;28;20045;-70
2021/01/03 04:43:18;;;;;;;21.73;11.02;;;;;;;4.82;47.48;100965.78;5033101;28;20120;-70
2021/01/03 04:45:46;;;;;;;20.40;10.65;;;;;;;4.80;47.47;100979.41;5031614;28;20038;-70
2021/01/03 04:48:22;;;;;;;19.35;9.52;;;;;;;4.82;47.16;100969.34;5032983;28;20049;-70
2021/01/03 04:51:11;;;;;;;17.90;9.68;;;;;;;4.80;47.32;100971.28;5032067;28;20393;-70
2021/01/03 04:53:51;;;;;;;18.33;9.80;;;;;;;4.81;47.39;100969.44;5049337;28;20065;-70
2021/01/03 04:56:28;;;;;;;19.30;9.40;;;;;;;4.81;47.15;100964.03;5031861;28;20135;-70
2021/01/03 04:59:02;;;;;;;19.88;10.27;;;;;;;4.80;46.88;100971.28;5030860;28;20128;-70
2021/01/03 05:01:57;;;;;;;19.27;10.48;;;;;;;4.78;46.98;100973.19;5031865;28;20052;-70
2021/01/03 05:04:54;;;;;;;16.60;8.65;;;;;;;4.76;46.97;100979.69;5033413;28;20041;-70
2021/01/03 05:07:26;;;;;;;17.30;8.93;;;;;;;4.78;46.97;100977.75;5014491;28;20077;-70
2021/01/03 05:10:10;;;;;;;18.00;9.77;;;;;;;4.77;47.14;100978.75;5029597;28;20390;-69
2021/01/03 05:12:50;;;;;;;15.35;8.20;;;;;;;4.78;47.21;100975.91;5045262;28;20038;-69
2021/01/03 05:15:23;;;;;;;16.20;8.63;;;;;;;4.78;47.26;100975.03;5026250;28;20038;-70
2021/01/03 05:17:51;;;;;;;20.63;9.55;;;;;;;4.76;47.39;100967.03;5033142;28;20500;-70
2021/01/03 05:20:18;;;;;;;16.90;9.63;;;;;;;4.77;47.25;100973.31;5030945;28;20061;-70
2021/01/03 05:22:46;;;;;;;20.17;10.40;;;;;;;4.77;47.44;100971.44;5047250;28;20042;-70
2021/01/03 05:25:17;;;;;;;16.10;8.70;;;;;;;4.79;47.39;100976.78;5027134;28;20033;-70
2021/01/03 05:28:02;;;;;;;18.63;10.25;;;;;;;4.78;46.59;100977.75;5026153;28;20049;-70
2021/01/03 05:30:31;;;;;;;17.40;9.32;;;;;;;4.77;47.35;100978.75;5024844;28;20099;-70
2021/01/03 05:33:06;;;;;;;17.63;9.38;;;;;;;4.79;46.69;100972.25;5030174;28;20037;-70
2021/01/03 05:35:38;;;;;;;15.07;8.38;;;;;;;4.78;46.70;100983.16;5032199;28;20052;-70
2021/01/03 05:38:11;;;;;;;17.08;9.02;;;;;;;4.78;46.79;100978.63;5026522;28;20037;-70
2021/01/03 05:40:41;;;;;;;16.63;8.65;;;;;;;4.75;46.75;100976.13;5030465;28;20129;-69
2021/01/03 05:43:21;;;;;;;18.05;9.88;;;;;;;4.78;46.49;100986.75;5032768;28;20211;-69
2021/01/03 05:46:06;;;;;;;17.38;9.18;;;;;;;4.76;46.89;100988.72;5025171;28;20040;-69
2021/01/03 05:48:38;;;;;;;16.95;9.18;;;;;;;4.76;46.63;100991.41;5027803;28;20072;-70
2021/01/03 05:51:31;;;;;;;16.35;8.70;;;;;;;4.73;46.89;100991.59;5032511;28;20124;-70
2021/01/03 05:54:03;;;;;;;16.85;8.77;;;;;;;4.71;46.85;100998.06;5033114;28;20496;-70
2021/01/03 05:56:34;;;;;;;14.85;8.48;;;;;;;4.73;46.74;100997.00;5026226;28;20033;-69
2021/01/03 05:59:03;;;;;;;19.13;10.85;;;;;;;4.72;46.92;100997.97;5027659;28;20065;-69
2021/01/03 06:01:34;;;;;;;18.92;9.77;;;;;;;4.73;46.66;100994.28;5031750;28;20467;-70
2021/01/03 06:04:06;;;;;;;17.52;10.00;;;;;;;4.73;46.45;100996.13;5031247;28;20045;-70
2021/01/03 06:07:00;;;;;;;18.52;10.48;;;;;;;4.68;46.29;101003.69;5027715;28;20033;-69
2021/01/03 06:09:36;;;;;;;16.40;10.02;;;;;;;4.68;46.50;101001.84;5018071;28;20065;-69
2021/01/03 06:12:09;;;;;;;14.88;8.23;;;;;;;4.69;46.66;101003.56;5032338;28;20045;-69
2021/01/03 06:14:37;;;;;;;16.43;9.47;;;;;;;4.67;46.78;101012.75;5030911;28;20052;-70
2021/01/03 06:17:20;;;;;;;15.95;7.65;;;;;;;4.69;46.54;101013.53;5031293;28;20282;-69
2021/01/03 06:19:49;;;;;;;13.25;7.80;;;;;;;4.68;46.69;101006.38;5031468;28;20043;-69
2021/01/03 06:22:36;;;;;;;18.27;10.18;;;;;;;4.67;46.22;101004.63;5031636;28;20099;-70
2021/01/03 06:25:21;;;;;;;15.63;8.68;;;;;;;4.67;46.51;101007.34;5029816;28;21242;-70
2021/01/03 06:27:49;;;;;;;16.00;9.35;;;;;;;4.64;46.90;101005.69;5025249;28;20528;-69
2021/01/03 06:30:22;;;;;;;16.58;9.27;;;;;;;4.66;46.42;101006.47;5031960;28;20045;-69
2021/01/03 06:33:04;;;;;;;;;;;;;;;4.40;46.96;101005.28;5024867;28;20045;-70
2021/01/03 06:35:33;;;;;;;15.80;8.48;;;;;;;4.59;46.77;101010.50;5031945;28;19927;-69
2021/01/03 06:38:07;;;;;;;14.23;8.35;;;;;;;4.64;46.49;101008.38;5027348;28;20041;-69
2021/01/03 06:40:37;;;;;;;18.88;9.50;;;;;;;4.60;46.80;101003.25;5027287;28;20041;-69
2021/01/03 06:43:39;;;;;;;19.15;9.27;;;;;;;4.61;46.37;101008.56;5027999;28;20095;-70
2021/01/03 06:46:48;;;;;;;13.93;8.43;;;;;;;4.59;46.80;101004.22;5037117;28;20041;-70
2021/01/03 06:49:34;;;;;;;18.02;8.82;;;;;;;4.60;46.39;101000.56;5022113;28;20081;-70
2021/01/03 06:52:59;;;;;;;17.75;10.57;;;;;;;4.57;46.27;100998.00;5028579;28;20404;-69
2021/01/03 06:55:56;;;;;;;17.08;8.70;;;;;;;4.58;46.13;101005.19;5026297;28;20041;-70
2021/01/03 06:58:47;;;;;;;13.95;7.88;;;;;;;4.59;46.52;100996.97;5030343;28;20124;-70
2021/01/03 07:01:20;;;;;;;19.33;9.88;;;;;;;4.58;46.63;101003.34;5030564;28;20481;-70
2021/01/03 07:03:50;;;;;;;17.65;9.25;;;;;;;4.59;46.83;101004.22;5031414;28;20103;-70
2021/01/03 07:06:19;;;;;;;18.42;9.80;;;;;;;4.58;46.54;100999.75;5022567;28;20068;-70
2021/01/03 07:08:49;;;;;;;16.38;9.02;;;;;;;4.58;46.72;101005.19;5030734;28;20053;-70
2021/01/03 07:11:40;;;;;;;16.10;7.32;;;;;;;4.59;46.52;101002.38;5030720;28;20489;-70
2021/01/03 07:14:09;;;;;;;15.55;8.25;;;;;;;4.57;46.72;101004.31;5015590;28;20061;-70
2021/01/03 07:16:54;;;;;;;16.00;8.80;;;;;;;4.58;46.04;101003.34;5030824;28;20038;-70
2021/01/03 07:19:36;;;;;;;14.82;8.63;;;;;;;4.58;46.29;101005.19;5030004;28;20276;-69
2021/01/03 07:22:10;;;;;;;18.10;9.18;;;;;;;4.56;46.41;101007.97;5030395;28;20051;-69
2021/01/03 07:24:58;;;;;;;16.23;8.43;;;;;;;4.55;46.61;101006.22;5042160;28;20041;-69
2021/01/03 07:27:35;;;;;;;15.80;8.05;;;;;;;4.57;46.50;101003.44;5025252;28;20045;-69
2021/01/03 07:30:31;;;;;;;15.80;8.73;;;;;;;4.55;45.93;101006.22;5017487;28;20041;-69
2021/01/03 07:33:12;;;;;;;14.45;7.68;;;;;;;4.54;45.97;101009.88;5027327;28;20067;-69
2021/01/03 07:35:41;;;;;;;15.10;8.40;;;;;;;4.53;46.36;101005.44;5027111;28;20127;-69
2021/01/03 07:38:31;;;;;;;16.23;9.13;;;;;;;4.54;45.60;101007.19;5030211;28;20574;-69
2021/01/03 07:41:05;;;;;;;14.10;8.23;;;;;;;4.51;46.37;101006.50;5030518;28;20455;-69
2021/01/03 07:43:55;;;;;;;16.13;8.27;;;;;;;4.49;45.38;101005.72;5031423;28;20060;-69
2021/01/03 07:46:57;;;;;;;15.65;9.10;;;;;;;4.42;45.82;101014.22;5014529;28;20045;-68
2021/01/03 07:49:41;;;;;;;16.60;7.88;;;;;;;4.43;46.11;101005.13;5026883;28;20047;-69
2021/01/03 07:52:39;;;;;;;13.40;7.50;;;;;;;4.42;45.32;101011.50;5026451;28;20160;-69
2021/01/03 07:55:27;;;;;;;12.75;7.65;;;;;;;4.43;45.30;101015.09;5027756;28;20048;-69
2021/01/03 07:57:59;;;;;;;11.75;7.22;;;;;;;4.40;45.96;101013.41;5031752;28;20443;-70
2021/01/03 08:00:28;;;;;;;11.65;7.13;;;;;;;4.42;45.96;101026.88;5031223;28;20381;-69
2021/01/03 08:03:00;;;;;;;11.90;6.85;;;;;;;4.42;45.75;101016.03;5031646;28;20223;-69
2021/01/03 08:05:30;;;;;;;11.30;6.45;;;;;;;4.40;45.87;101016.13;5016446;28;20132;-69
2021/01/03 08:08:03;;;;;;;12.05;6.78;;;;;;;4.40;45.43;101024.25;5029373;28;20514;-70
2021/01/03 08:10:32;;;;;;;12.60;7.82;;;;;;;4.35;45.57;101029.06;5034004;28;20034;-70
2021/01/03 08:13:08;;;;;;;9.63;6.32;;;;;;;4.36;45.16;101028.09;5035184;28;20060;-69
2021/01/03 08:15:36;;;;;;;12.55;7.10;;;;;;;4.34;45.82;101035.44;5033983;28;20044;-69
2021/01/03 08:18:06;;;;;;;13.00;7.45;;;;;;;4.31;45.68;101032.03;5035064;28;20051;-70
2021/01/03 08:20:34;;;;;;;12.35;6.15;;;;;;;4.31;45.56;101027.50;5037384;28;20512;-69
2021/01/03 08:23:16;;;;;;;11.63;6.72;;;;;;;4.31;44.86;101034.75;5044449;28;20499;-70
2021/01/03 08:25:45;;;;;;;11.23;6.75;;;;;;;4.26;45.46;101029.59;5034636;28;20041;-69
2021/01/03 08:28:18;;;;;;;10.30;6.70;;;;;;;4.27;45.29;101039.47;5034219;28;20049;-70
2021/01/03 08:30:47;;;;;;;10.30;6.47;;;;;;;4.24;45.36;101036.06;5034323;28;20049;-69
2021/01/03 08:33:22;;;;;;;12.70;7.15;;;;;;;4.22;44.86;101038.84;5034043;28;20092;-69
2021/01/03 08:35:49;;;;;;;9.57;5.55;;;;;;;4.23;45.66;101040.59;5027998;28;20044;-69
2021/01/03 08:38:24;;;;;;;9.43;5.75;;;;;;;4.25;44.85;101035.09;5034999;28;20084;-70
2021/01/03 08:40:53;;;;;;;8.95;5.40;;;;;;;4.22;45.58;101037.97;5034446;28;20041;-69
2021/01/03 08:43:28;;;;;;;9.73;5.88;;;;;;;4.21;44.96;101039.81;5035011;28;20091;-69
2021/01/03 08:46:01;;;;;;;9.30;5.90;;;;;;;4.22;44.93;101040.69;5032629;28;20149;-70
2021/01/03 08:48:30;;;;;;;10.18;6.22;;;;;;;4.21;45.34;101044.34;5033076;28;20506;-69
2021/01/03 08:51:07;;;;;;;11.13;6.50;;;;;;;4.22;44.75;101038.84;5031946;28;20037;-70
2021/01/03 08:53:35;;;;;;;8.88;5.32;;;;;;;4.21;45.35;101052.47;5034531;28;20064;-70
2021/01/03 08:56:08;;;;;;;9.10;5.93;;;;;;;4.21;44.92;101047.94;5022007;28;20038;-70
2021/01/03 08:58:38;;;;;;;9.82;5.95;;;;;;;4.19;45.29;101046.28;5034068;28;20412;-69
2021/01/03 09:01:16;;;;;;;9.02;5.97;;;;;;;4.18;45.22;101049.94;5022558;28;20068;-69
2021/01/03 09:03:44;;;;;;;9.88;5.88;;;;;;;4.17;45.18;101049.06;5034557;28;20045;-69
2021/01/03 09:06:15;;;;;;;9.02;5.97;;;;;;;4.18;44.96;101058.06;5021618;28;20133;-69
2021/01/03 09:08:44;;;;;;;10.57;6.18;;;;;;;4.16;45.12;101057.28;5031837;28;20053;-69
2021/01/03 09:11:16;;;;;;;9.27;5.70;;;;;;;4.18;44.89;101058.06;5034417;28;20065;-70
2021/01/03 09:13:48;;;;;;;10.95;5.90;;;;;;;4.18;44.48;101058.06;5029621;28;20424;-69
2021/01/03 09:16:26;;;;;;;8.90;5.50;;;;;;;4.17;44.61;101054.50;5034531;28;20128;-69
2021/01/03 09:19:07;;;;;;;9.07;5.38;;;;;;;4.18;44.37;101055.38;5033108;28;20049;-69
2021/01/03 09:21:34;;;;;;;8.55;5.38;;;;;;;4.17;44.98;101059.03;5025822;28;20075;-70
2021/01/03 09:24:28;;;;;;;8.82;5.43;;;;;;;4.15;43.96;101066.34;5033944;28;20772;-70
2021/01/03 09:26:59;;;;;;;8.55;5.35;;;;;;;4.16;44.96;101068.97;5028385;28;20083;-70
2021/01/03 09:29:28;;;;;;;8.05;5.50;;;;;;;4.18;44.81;101068.91;5033589;28;20488;-69
2021/01/03 09:32:01;;;;;;;8.95;5.78;;;;;;;4.19;44.63;101068.81;5033969;28;20528;-70
2021/01/03 09:34:47;;;;;;;9.73;6.70;;;;;;;4.17;44.17;101069.84;5031231;28;20050;-70
2021/01/03 09:37:21;;;;;;;9.80;5.63;;;;;;;4.18;44.53;101072.50;5027384;28;20116;-70
2021/01/03 09:40:05;;;;;;;9.40;5.38;;;;;;;4.19;43.90;101071.53;5033336;28;20040;-70
2021/01/03 09:42:37;;;;;;;8.63;5.28;;;;;;;4.18;44.68;101074.31;5032570;28;20128;-69
2021/01/03 09:45:24;;;;;;;10.18;6.30;;;;;;;4.19;43.70;101076.06;5033700;28;20041;-69
2021/01/03 09:47:52;;;;;;;9.13;5.80;;;;;;;4.17;44.93;101073.44;5031450;28;20037;-70
2021/01/03 09:50:27;;;;;;;8.18;5.13;;;;;;;4.22;44.09;101067.75;5021264;28;20049;-69
2021/01/03 09:53:06;;;;;;;10.23;5.47;;;;;;;4.22;44.27;101073.16;5048066;28;20049;-69
2021/01/03 09:55:41;;;;;;;9.50;5.60;;;;;;;4.21;43.94;101077.72;5030257;28;20095;-70
2021/01/03 09:58:09;;;;;;;8.30;5.40;;;;;;;4.21;44.58;101072.28;5033495;28;20048;-70
2021/01/03 10:00:55;;;;;;;9.55;5.25;;;;;;;4.23;43.87;101077.63;5029456;28;20120;-70
2021/01/03 10:03:33;;;;;;;8.38;4.93;;;;;;;4.22;44.36;101071.34;5028030;28;20046;-70
2021/01/03 10:06:13;;;;;;;8.93;5.32;;;;;;;4.24;43.67;101074.84;5026897;28;20059;-69
2021/01/03 10:08:43;;;;;;;7.75;4.88;;;;;;;4.20;44.67;101065.13;5023820;28;20102;-70
2021/01/03 10:11:12;;;;;;;8.05;4.90;;;;;;;4.24;44.54;101065.84;5031171;28;20051;-70
2021/01/03 10:13:54;;;;;;;7.57;4.80;;;;;;;4.25;43.53;101073.00;5030376;28;20400;-70
2021/01/03 10:16:26;;;;;;;8.52;5.07;;;;;;;4.24;43.95;101068.56;5029416;28;20045;-70
2021/01/03 10:18:54;;;;;;;9.15;5.47;;;;;;;4.23;44.34;101064.97;5030589;28;20041;-70
2021/01/03 10:21:30;;;;;;;8.10;5.32;;;;;;;4.30;43.91;101060.06;5030742;28;20069;-70
2021/01/03 10:23:59;;;;;;;7.43;4.28;;;;;;;4.30;44.50;101057.34;5030209;28;20472;-70
2021/01/03 10:27:09;;;;;;;8.02;5.15;;;;;;;4.24;42.85;101063.13;5030183;28;20037;-70
2021/01/03 10:29:38;;;;;;;7.28;4.38;;;;;;;4.24;44.20;101061.31;5026239;28;20052;-71
2021/01/03 10:32:05;;;;;;;8.00;5.28;;;;;;;4.25;44.26;101062.19;5031490;28;20049;-71
2021/01/03 10:34:33;;;;;;;7.30;4.50;;;;;;;4.24;44.43;101066.72;5045491;28;20037;-71
2021/01/03 10:37:02;;;;;;;7.47;4.55;;;;;;;4.24;44.24;101060.44;5028332;28;20497;-71
2021/01/03 10:39:30;;;;;;;7.78;4.25;;;;;;;4.27;44.39;101068.38;5029382;28;20053;-71
2021/01/03 10:41:58;;;;;;;6.47;4.07;;;;;;;4.24;44.06;101068.56;5030204;28;20052;-70
2021/01/03 10:44:25;;;;;;;6.10;3.95;;;;;;;4.24;44.05;101055.88;5038127;28;20049;-71
2021/01/03 10:46:56;;;;;;;6.18;4.15;;;;;;;4.25;44.08;101062.19;5030721;28;20041;-71
2021/01/03 10:49:24;;;;;;;6.57;4.47;;;;;;;4.26;44.04;101063.94;5010218;28;20056;-71
2021/01/03 10:51:52;;;;;;;5.35;3.33;;;;;;;4.28;44.23;101064.69;5031056;28;20069;-71
2021/01/03 10:54:23;;;;;;;6.97;4.07;;;;;;;4.28;44.09;101056.56;5021402;28;20485;-71
2021/01/03 10:57:05;;;;;;;5.97;3.97;;;;;;;4.26;44.24;101062.09;5030430;28;20095;-71
2021/01/03 10:59:32;;;;;;;6.70;3.75;;;;;;;4.28;44.24;101061.97;5027630;28;20041;-71
2021/01/03 11:02:01;;;;;;;7.25;3.83;;;;;;;4.28;44.21;101053.84;5030697;28;20056;-71
2021/01/03 11:04:29;;;;;;;7.80;4.07;;;;;;;4.28;44.39;101056.56;5023164;28;20051;-71
2021/01/03 11:06:57;;;;;;;7.05;3.78;;;;;;;4.30;44.04;101057.34;5031333;28;20037;-71
2021/01/03 11:09:27;;;;;;;7.50;4.97;;;;;;;4.25;44.01;101046.81;5030170;28;20045;-70
2021/01/03 11:11:59;;;;;;;7.50;4.70;;;;;;;4.27;43.34;101049.44;5029835;28;20041;-70
2021/01/03 11:14:26;;;;;;;6.27;4.07;;;;;;;4.24;43.96;101042.34;5045755;28;20049;-71
2021/01/03 11:16:54;;;;;;;7.32;4.65;;;;;;;4.25;43.99;101035.97;5026680;28;20310;-70
2021/01/03 11:19:23;;;;;;;7.07;4.07;;;;;;;4.21;43.80;101028.09;5030068;28;20099;-68
2021/01/03 11:21:54;;;;;;;6.97;3.85;;;;;;;4.22;43.60;101030.72;5025661;28;20531;-68
2021/01/03 11:24:22;;;;;;;6.38;4.18;;;;;;;4.22;44.21;101032.56;5029715;28;20041;-70
2021/01/03 11:26:49;;;;;;;6.10;4.00;;;;;;;4.20;43.79;101032.63;5031543;28;20121;-70
2021/01/03 11:29:21;;;;;;;6.97;4.10;;;;;;;4.21;43.49;101023.56;5025743;28;20041;-70
2021/01/03 11:31:50;;;;;;;6.45;4.20;;;;;;;4.20;43.71;101020.94;5014077;28;20394;-70
2021/01/03 11:34:20;;;;;;;7.15;4.47;;;;;;;4.19;44.09;101016.50;5027378;28;20129;-71
2021/01/03 11:36:51;;;;;;;7.03;3.78;;;;;;;4.22;43.78;101019.00;5046856;28;20060;-71
2021/01/03 11:39:19;;;;;;;7.32;4.32;;;;;;;4.23;43.88;101009.94;5027923;28;20061;-71
2021/01/03 11:41:47;;;;;;;6.32;4.10;;;;;;;4.22;43.86;101013.59;5025091;28;20069;-70
2021/01/03 11:44:15;;;;;;;6.00;3.80;;;;;;;4.23;43.99;101010.81;5026923;28;20045;-70
2021/01/03 11:46:43;;;;;;;5.68;3.50;;;;;;;4.23;44.20;101013.50;5021733;28;20531;-70
2021/01/03 11:49:10;;;;;;;6.60;3.97;;;;;;;4.22;44.09;101010.88;5030364;28;20048;-69
2021/01/03 11:51:40;;;;;;;6.60;4.15;;;;;;;4.23;43.85;101012.63;5027702;28;20050;-70